createdAt,value
2022-08-17T00:00:43.993Z,49.30
2022-08-17T00:03:19.851Z,49.30
2022-08-17T00:05:51.738Z,49.30
2022-08-17T00:08:22.630Z,49.20
2022-08-17T00:10:52.255Z,49.30
2022-08-17T00:13:25.231Z,49.30
2022-08-17T00:15:56.768Z,49.30
2022-08-17T00:19:01.719Z,49.30
2022-08-17T00:21:17.224Z,49.20
2022-08-17T00:23:53.877Z,49.30
2022-08-17T00:26:35.860Z,49.30
2022-08-17T00:29:20.117Z,49.20
2022-08-17T00:31:50.592Z,49.30
2022-08-17T00:34:20.384Z,49.20
2022-08-17T00:36:49.843Z,49.30
2022-08-17T00:39:19.291Z,49.20
2022-08-17T00:41:48.987Z,49.20
2022-08-17T00:44:18.575Z,49.20
2022-08-17T00:46:49.056Z,49.20
2022-08-17T00:49:20.760Z,49.10
2022-08-17T00:51:51.993Z,49.10
2022-08-17T00:54:21.602Z,49.10
2022-08-17T00:56:53.184Z,49.00
2022-08-17T00:59:23.413Z,49.00
2022-08-17T01:01:52.997Z,49.00
2022-08-17T01:04:22.671Z,49.10
2022-08-17T01:06:52.271Z,49.00
2022-08-17T01:09:21.818Z,49.00
2022-08-17T01:11:53.255Z,49.00
2022-08-17T01:14:26.995Z,49.00
2022-08-17T01:16:56.738Z,49.00
2022-08-17T01:19:29.958Z,48.90
2022-08-17T01:22:17.869Z,48.90
2022-08-17T01:24:48.878Z,48.90
2022-08-17T01:27:20.680Z,49.00
2022-08-17T01:29:52.360Z,49.00
2022-08-17T01:32:22.029Z,49.00
2022-08-17T01:34:52.014Z,49.00
2022-08-17T01:37:22.395Z,49.00
2022-08-17T01:39:53.517Z,49.00
2022-08-17T01:42:32.636Z,49.00
2022-08-17T01:45:05.308Z,49.00
2022-08-17T01:47:36.093Z,49.00
2022-08-17T01:50:12.769Z,48.90
2022-08-17T01:52:42.389Z,48.90
2022-08-17T01:55:12.186Z,48.80
2022-08-17T01:57:41.757Z,48.80
2022-08-17T02:00:11.995Z,48.70
2022-08-17T02:02:42.511Z,48.80
2022-08-17T02:05:12.055Z,48.70
2022-08-17T02:07:59.785Z,48.60
2022-08-17T02:10:33.677Z,48.50
2022-08-17T02:13:04.349Z,48.60
2022-08-17T02:15:34.663Z,48.60
2022-08-17T02:18:04.705Z,48.60
2022-08-17T02:20:42.654Z,48.50
2022-08-17T02:23:13.152Z,48.50
2022-08-17T02:25:44.616Z,48.50
2022-08-17T02:28:14.163Z,48.60
2022-08-17T02:30:59.932Z,48.50
2022-08-17T02:33:41.759Z,48.60
2022-08-17T02:36:13.341Z,48.60
2022-08-17T02:38:43.029Z,48.60
2022-08-17T02:41:14.175Z,48.70
2022-08-17T02:43:44.052Z,48.70
2022-08-17T02:46:13.985Z,48.70
2022-08-17T02:48:43.554Z,48.70
2022-08-17T02:51:13.133Z,48.70
2022-08-17T02:53:42.599Z,48.60
2022-08-17T02:56:12.097Z,48.60
2022-08-17T02:58:41.684Z,48.60
2022-08-17T03:01:11.384Z,48.60
2022-08-17T03:03:40.881Z,48.40
2022-08-17T03:06:10.489Z,48.50
2022-08-17T03:08:39.988Z,48.90
2022-08-17T03:11:09.511Z,48.30
2022-08-17T03:13:39.014Z,48.30
2022-08-17T03:16:10.240Z,48.30
2022-08-17T03:18:39.691Z,48.20
2022-08-17T03:21:10.742Z,48.20
2022-08-17T03:23:42.293Z,48.10
2022-08-17T03:26:15.566Z,48.10
2022-08-17T03:28:46.454Z,48.10
2022-08-17T03:31:15.911Z,48.00
2022-08-17T03:33:45.616Z,48.10
2022-08-17T03:36:15.235Z,48.00
2022-08-17T03:38:45.099Z,47.90
2022-08-17T03:41:15.095Z,47.90
2022-08-17T03:43:44.606Z,47.90
2022-08-17T03:46:35.164Z,47.90
2022-08-17T03:49:23.737Z,47.80
2022-08-17T03:52:11.537Z,47.90
2022-08-17T03:54:59.261Z,47.80
2022-08-17T03:57:28.945Z,47.80
2022-08-17T03:59:58.431Z,47.80
2022-08-17T04:02:32.327Z,47.70
2022-08-17T04:05:01.855Z,47.60
2022-08-17T04:07:31.726Z,47.60
2022-08-17T04:10:01.309Z,47.50
2022-08-17T04:12:31.881Z,47.40
2022-08-17T04:15:01.487Z,47.40
2022-08-17T04:17:31.048Z,47.50
2022-08-17T04:20:00.559Z,47.40
2022-08-17T04:22:44.123Z,47.40
2022-08-17T04:25:18.686Z,47.50
2022-08-17T04:27:49.882Z,47.30
2022-08-17T04:30:19.379Z,47.30
2022-08-17T04:33:05.746Z,47.30
2022-08-17T04:35:37.880Z,47.20
2022-08-17T04:38:07.888Z,47.20
2022-08-17T04:40:56.816Z,47.10
2022-08-17T04:43:27.500Z,47.00
2022-08-17T04:45:59.670Z,46.90
2022-08-17T04:48:36.320Z,46.90
2022-08-17T04:51:08.348Z,46.70
2022-08-17T04:53:37.927Z,47.30
2022-08-17T04:56:07.526Z,46.50
2022-08-17T04:58:41.401Z,46.50
2022-08-17T05:01:11.240Z,46.50
2022-08-17T05:03:40.850Z,46.30
2022-08-17T05:06:10.767Z,46.20
2022-08-17T05:08:40.754Z,46.40
2022-08-17T05:11:10.344Z,46.30
2022-08-17T05:13:39.850Z,46.20
2022-08-17T05:16:10.314Z,46.40
2022-08-17T05:18:40.188Z,46.20
2022-08-17T05:21:09.899Z,46.40
2022-08-17T05:23:42.813Z,46.40
2022-08-17T05:26:23.157Z,46.20
2022-08-17T05:28:59.466Z,46.20
2022-08-17T05:31:30.567Z,46.10
2022-08-17T05:34:00.293Z,46.10
2022-08-17T05:36:42.048Z,45.90
2022-08-17T05:39:15.888Z,45.90
2022-08-17T05:41:48.818Z,45.90
2022-08-17T05:44:18.472Z,45.90
2022-08-17T05:46:51.100Z,45.90
2022-08-17T05:49:28.376Z,46.00
2022-08-17T05:52:03.871Z,46.10
2022-08-17T05:54:42.221Z,46.00
2022-08-17T05:57:29.832Z,46.00
2022-08-17T06:00:01.754Z,45.90
2022-08-17T06:03:00.313Z,45.80
2022-08-17T06:05:36.019Z,45.60
2022-08-17T06:08:08.240Z,45.70
2022-08-17T06:10:56.835Z,45.70
2022-08-17T06:13:26.370Z,45.60
2022-08-17T06:15:58.122Z,45.50
2022-08-17T06:18:28.493Z,45.70
2022-08-17T06:20:59.454Z,45.70
2022-08-17T06:23:34.311Z,45.40
2022-08-17T06:26:06.201Z,45.10
2022-08-17T06:28:38.421Z,45.30
2022-08-17T06:31:09.820Z,45.20
2022-08-17T06:33:40.665Z,45.30
2022-08-17T06:36:31.903Z,45.70
2022-08-17T06:39:01.492Z,45.20
2022-08-17T06:41:54.010Z,45.20
2022-08-17T06:44:43.238Z,45.20
2022-08-17T06:47:28.635Z,45.20
2022-08-17T06:50:07.153Z,45.10
2022-08-17T06:52:46.407Z,45.00
2022-08-17T06:55:22.415Z,45.00
2022-08-17T06:57:53.367Z,45.00
2022-08-17T07:00:27.935Z,45.10
2022-08-17T07:03:09.907Z,45.00
2022-08-17T07:05:43.031Z,44.90
2022-08-17T07:08:35.351Z,44.70
2022-08-17T07:11:07.431Z,44.50
2022-08-17T07:13:51.624Z,41.20
2022-08-17T07:16:30.852Z,39.00
2022-08-17T07:19:00.823Z,37.90
2022-08-17T07:21:30.245Z,37.60
2022-08-17T07:24:29.508Z,36.80
2022-08-17T07:27:11.029Z,36.40
2022-08-17T07:29:41.591Z,37.60
2022-08-17T07:32:11.507Z,36.70
2022-08-17T07:34:59.477Z,36.30
2022-08-17T07:37:30.328Z,36.10
2022-08-17T07:40:16.047Z,35.90
2022-08-17T07:43:04.959Z,36.40
2022-08-17T07:45:52.835Z,37.40
2022-08-17T07:48:23.972Z,38.20
2022-08-17T07:50:54.472Z,37.80
2022-08-17T07:53:25.383Z,37.30
2022-08-17T07:55:55.071Z,37.20
2022-08-17T07:58:25.116Z,37.40
2022-08-17T08:01:05.660Z,37.30
2022-08-17T08:03:37.202Z,37.30
2022-08-17T08:06:19.314Z,37.30
2022-08-17T08:08:52.157Z,37.20
2022-08-17T08:11:32.344Z,37.20
2022-08-17T08:14:31.193Z,37.30
2022-08-17T08:17:02.028Z,37.30
2022-08-17T08:19:31.644Z,37.40
2022-08-17T08:22:01.176Z,37.30
2022-08-17T08:24:43.079Z,37.40
2022-08-17T08:27:17.064Z,37.50
2022-08-17T08:30:01.720Z,37.60
2022-08-17T08:32:34.510Z,37.70
2022-08-17T08:35:10.065Z,37.60
2022-08-17T08:37:58.022Z,37.60
2022-08-17T08:40:27.441Z,37.60
2022-08-17T08:43:05.069Z,37.70
2022-08-17T08:45:47.785Z,37.70
2022-08-17T08:48:52.742Z,37.90
2022-08-17T08:51:22.674Z,38.40
2022-08-17T08:53:53.112Z,39.10
2022-08-17T08:57:11.641Z,39.60
2022-08-17T08:59:34.142Z,40.00
2022-08-17T09:02:30.139Z,40.40
2022-08-17T09:05:24.596Z,40.80
2022-08-17T09:08:01.651Z,41.10
2022-08-17T09:10:31.254Z,41.30
2022-08-17T09:13:09.328Z,41.60
2022-08-17T09:15:41.898Z,41.60
2022-08-17T09:19:02.528Z,42.50
2022-08-17T09:21:15.056Z,42.00
2022-08-17T09:24:05.863Z,42.10
2022-08-17T09:26:36.332Z,42.30
2022-08-17T09:29:08.171Z,42.40
2022-08-17T09:31:48.797Z,42.60
2022-08-17T09:34:19.829Z,42.70
2022-08-17T09:36:51.216Z,42.80
2022-08-17T09:39:32.030Z,43.00
2022-08-17T09:42:07.976Z,43.10
2022-08-17T09:44:39.897Z,43.20
2022-08-17T09:47:47.143Z,43.30
2022-08-17T09:51:05.342Z,43.40
2022-08-17T09:53:37.379Z,43.50
2022-08-17T09:56:06.796Z,43.70
2022-08-17T09:58:57.592Z,43.70
2022-08-17T10:01:32.880Z,43.80
2022-08-17T10:04:08.272Z,43.90
2022-08-17T10:06:48.354Z,44.00
2022-08-17T10:09:19.970Z,44.00
2022-08-17T10:12:12.935Z,44.20
2022-08-17T10:15:07.915Z,44.20
2022-08-17T10:17:57.608Z,44.80
2022-08-17T10:20:32.873Z,45.00
2022-08-17T10:23:26.228Z,44.40
2022-08-17T10:26:06.980Z,44.50
2022-08-17T10:28:44.808Z,44.50
2022-08-17T10:31:34.327Z,44.50
2022-08-17T10:34:13.136Z,44.60
2022-08-17T10:36:42.612Z,44.60
2022-08-17T10:39:15.127Z,44.70
2022-08-17T10:41:45.861Z,44.70
2022-08-17T10:44:37.935Z,44.80
2022-08-17T10:47:08.689Z,44.80
2022-08-17T10:49:39.103Z,45.00
2022-08-17T10:52:28.371Z,45.00
2022-08-17T10:55:00.743Z,45.10
2022-08-17T10:57:35.717Z,45.10
2022-08-17T11:00:11.417Z,45.20
2022-08-17T11:02:54.001Z,45.40
2022-08-17T11:05:38.952Z,45.40
2022-08-17T11:08:12.950Z,45.40
2022-08-17T11:10:52.239Z,45.60
2022-08-17T11:13:41.135Z,45.60
2022-08-17T11:16:10.644Z,45.60
2022-08-17T11:18:49.554Z,45.70
2022-08-17T11:21:19.188Z,45.80
2022-08-17T11:23:52.311Z,45.90
2022-08-17T11:26:27.456Z,45.90
2022-08-17T11:29:06.400Z,46.10
2022-08-17T11:31:41.259Z,46.10
2022-08-17T11:34:10.782Z,46.30
2022-08-17T11:36:46.617Z,46.40
2022-08-17T11:39:31.998Z,46.40
2022-08-17T11:42:06.644Z,46.50
2022-08-17T11:44:41.971Z,46.50
2022-08-17T11:47:29.562Z,46.60
2022-08-17T11:50:27.589Z,47.20
2022-08-17T11:52:57.422Z,46.80
2022-08-17T11:55:36.624Z,46.80
2022-08-17T11:58:27.093Z,46.90
2022-08-17T12:00:59.741Z,47.00
2022-08-17T12:03:35.076Z,47.10
2022-08-17T12:06:07.463Z,47.20
2022-08-17T12:08:37.227Z,47.20
2022-08-17T12:11:13.475Z,47.20
2022-08-17T12:13:47.319Z,47.30
2022-08-17T12:16:20.476Z,47.30
2022-08-17T12:18:59.720Z,47.40
2022-08-17T12:21:48.656Z,47.50
2022-08-17T12:24:18.148Z,47.50
2022-08-17T12:26:52.539Z,47.60
2022-08-17T12:29:35.494Z,47.60
2022-08-17T12:32:08.302Z,47.70
2022-08-17T12:34:42.009Z,47.70
2022-08-17T12:37:25.596Z,47.70
2022-08-17T12:40:05.742Z,47.80
2022-08-17T12:42:38.877Z,47.80
2022-08-17T12:45:08.989Z,47.90
2022-08-17T12:47:41.202Z,47.90
2022-08-17T12:50:28.660Z,48.00
2022-08-17T12:53:02.244Z,48.00
2022-08-17T12:55:33.790Z,48.00
2022-08-17T12:58:03.472Z,48.00
2022-08-17T13:00:36.496Z,48.10
2022-08-17T13:03:08.921Z,48.10
2022-08-17T13:05:40.555Z,48.10
2022-08-17T13:08:17.053Z,48.10
2022-08-17T13:10:54.828Z,48.20
2022-08-17T13:13:25.603Z,48.20
2022-08-17T13:15:56.068Z,48.30
2022-08-17T13:18:34.765Z,48.30
2022-08-17T13:21:04.284Z,48.30
2022-08-17T13:23:33.865Z,48.30
2022-08-17T13:26:08.799Z,48.30
2022-08-17T13:28:39.995Z,48.40
2022-08-17T13:31:31.357Z,48.30
2022-08-17T13:34:33.501Z,48.40
2022-08-17T13:37:21.198Z,48.40
2022-08-17T13:39:52.838Z,48.40
2022-08-17T13:42:31.665Z,48.40
2022-08-17T13:45:01.683Z,48.50
2022-08-17T13:47:51.176Z,48.50
2022-08-17T13:50:21.752Z,48.50
2022-08-17T13:52:52.211Z,48.50
2022-08-17T13:55:22.981Z,48.50
2022-08-17T13:58:06.522Z,48.50
2022-08-17T14:00:37.506Z,48.50
2022-08-17T14:03:06.975Z,48.60
2022-08-17T14:05:38.050Z,48.60
2022-08-17T14:08:07.756Z,48.60
2022-08-17T14:10:37.693Z,48.60
2022-08-17T14:13:07.501Z,48.60
2022-08-17T14:15:55.724Z,48.60
2022-08-17T14:18:49.851Z,48.60
2022-08-17T14:21:15.824Z,48.70
2022-08-17T14:23:49.963Z,48.60
2022-08-17T14:26:24.944Z,48.70
2022-08-17T14:28:56.310Z,48.70
2022-08-17T14:31:26.518Z,48.70
2022-08-17T14:33:56.510Z,48.70
2022-08-17T14:36:25.982Z,48.70
2022-08-17T14:38:55.477Z,48.70
2022-08-17T14:41:25.557Z,48.80
2022-08-17T14:43:55.133Z,48.70
2022-08-17T14:46:24.639Z,48.80
2022-08-17T14:48:57.360Z,48.70
2022-08-17T14:51:28.731Z,48.80
2022-08-17T14:53:58.507Z,48.80
2022-08-17T14:56:35.327Z,48.80
2022-08-17T14:59:07.773Z,48.80
2022-08-17T15:01:38.016Z,48.80
2022-08-17T15:04:08.194Z,48.70
2022-08-17T15:06:37.622Z,48.80
2022-08-17T15:09:07.098Z,48.80
2022-08-17T15:11:36.516Z,48.80
2022-08-17T15:14:06.010Z,48.80
2022-08-17T15:16:36.946Z,48.90
2022-08-17T15:19:07.104Z,48.90
2022-08-17T15:21:37.107Z,48.90
2022-08-17T15:24:06.938Z,48.90
2022-08-17T15:26:36.788Z,48.90
2022-08-17T15:29:06.495Z,48.90
2022-08-17T15:31:38.821Z,48.80
2022-08-17T15:34:08.312Z,48.90
2022-08-17T15:36:40.658Z,48.90
2022-08-17T15:39:19.523Z,48.90
2022-08-17T15:41:58.056Z,48.90
2022-08-17T15:44:32.687Z,49.00
2022-08-17T15:47:04.964Z,49.00
2022-08-17T15:49:34.541Z,48.90
2022-08-17T15:52:06.340Z,48.90
2022-08-17T15:54:36.855Z,49.00
2022-08-17T15:57:08.438Z,49.50
2022-08-17T15:59:38.008Z,49.00
2022-08-17T16:03:13.587Z,49.00
2022-08-17T16:05:04.090Z,48.90
2022-08-17T16:07:42.980Z,49.00
2022-08-17T16:10:18.223Z,49.00
2022-08-17T16:12:48.737Z,49.00
2022-08-17T16:15:18.462Z,49.00
2022-08-17T16:17:47.977Z,48.90
2022-08-17T16:20:20.290Z,49.00
2022-08-17T16:22:50.783Z,49.00
2022-08-17T16:25:49.219Z,49.00
2022-08-17T16:28:17.854Z,49.00
2022-08-17T16:30:47.416Z,49.00
2022-08-17T16:33:17.928Z,49.00
2022-08-17T16:35:47.798Z,49.10
2022-08-17T16:38:17.295Z,49.10
2022-08-17T16:40:46.859Z,49.10
2022-08-17T16:43:17.837Z,49.10
2022-08-17T16:45:51.948Z,49.10
2022-08-17T16:48:21.757Z,49.10
2022-08-17T16:51:02.966Z,49.10
2022-08-17T16:53:35.915Z,49.10
2022-08-17T16:56:06.227Z,49.10
2022-08-17T16:58:35.896Z,49.10
2022-08-17T17:01:06.713Z,49.10
2022-08-17T17:03:36.226Z,49.00
2022-08-17T17:06:23.956Z,49.00
2022-08-17T17:08:55.461Z,49.10
2022-08-17T17:11:28.347Z,49.10
2022-08-17T17:14:03.246Z,49.10
2022-08-17T17:16:51.484Z,49.10
2022-08-17T17:19:34.700Z,49.20
2022-08-17T17:22:37.254Z,49.20
2022-08-17T17:25:06.754Z,49.30
2022-08-17T17:27:43.677Z,49.20
2022-08-17T17:30:15.236Z,49.10
2022-08-17T17:32:44.833Z,49.20
2022-08-17T17:35:18.947Z,49.20
2022-08-17T17:37:48.534Z,49.20
2022-08-17T17:40:22.612Z,49.20
2022-08-17T17:42:56.397Z,49.20
2022-08-17T17:45:27.219Z,49.30
2022-08-17T17:47:56.767Z,49.30
2022-08-17T17:50:31.081Z,49.30
2022-08-17T17:53:03.210Z,49.30
2022-08-17T17:55:41.430Z,49.30
2022-08-17T17:58:31.000Z,49.30
2022-08-17T18:01:18.980Z,49.40
2022-08-17T18:03:54.095Z,49.40
2022-08-17T18:06:26.549Z,49.50
2022-08-17T18:09:10.896Z,49.40
2022-08-17T18:11:58.925Z,49.40
2022-08-17T18:14:31.303Z,50.00
2022-08-17T18:17:01.143Z,49.40
2022-08-17T18:19:31.122Z,49.50
2022-08-17T18:22:03.553Z,49.50
2022-08-17T18:24:39.608Z,49.50
2022-08-17T18:27:24.449Z,49.50
2022-08-17T18:29:55.185Z,49.60
2022-08-17T18:32:30.664Z,49.60
2022-08-17T18:35:00.682Z,49.60
2022-08-17T18:37:43.892Z,49.70
2022-08-17T18:40:16.504Z,49.60
2022-08-17T18:42:52.031Z,49.60
2022-08-17T18:45:39.934Z,49.60
2022-08-17T18:48:23.508Z,49.70
2022-08-17T18:50:54.166Z,49.70
2022-08-17T18:53:26.709Z,49.70
2022-08-17T18:56:20.857Z,49.70
2022-08-17T18:59:07.972Z,49.70
2022-08-17T19:01:52.705Z,49.70
2022-08-17T19:04:40.991Z,49.70
2022-08-17T19:07:25.294Z,49.70
2022-08-17T19:09:57.632Z,49.80
2022-08-17T19:12:43.162Z,49.80
2022-08-17T19:15:14.298Z,49.80
2022-08-17T19:17:54.490Z,49.80
2022-08-17T19:20:25.816Z,49.80
2022-08-17T19:23:18.653Z,49.80
2022-08-17T19:25:50.225Z,49.80
2022-08-17T19:28:38.875Z,49.80
2022-08-17T19:31:18.349Z,49.80
2022-08-17T19:33:48.234Z,49.90
2022-08-17T19:36:36.591Z,49.90
2022-08-17T19:39:38.748Z,49.90
2022-08-17T19:42:14.228Z,49.90
2022-08-17T19:44:56.094Z,49.90
2022-08-17T19:47:51.487Z,50.00
2022-08-17T19:50:16.397Z,50.00
2022-08-17T19:52:47.617Z,50.00
2022-08-17T19:55:31.565Z,50.00
2022-08-17T19:58:17.940Z,50.00
2022-08-17T20:00:51.337Z,50.00
2022-08-17T20:03:33.679Z,50.00
2022-08-17T20:06:19.093Z,50.10
2022-08-17T20:09:15.199Z,50.10
2022-08-17T20:11:51.271Z,50.10
2022-08-17T20:14:22.335Z,50.10
2022-08-17T20:16:51.825Z,50.10
2022-08-17T20:19:37.268Z,50.20
2022-08-17T20:22:25.185Z,50.20
2022-08-17T20:25:14.973Z,50.10
2022-08-17T20:28:12.754Z,50.10
2022-08-17T20:30:43.553Z,50.20
2022-08-17T20:33:25.679Z,50.20
2022-08-17T20:36:01.432Z,50.20
2022-08-17T20:38:57.150Z,50.10
2022-08-17T20:41:27.435Z,50.10
2022-08-17T20:43:56.866Z,50.10
2022-08-17T20:46:35.149Z,50.20
2022-08-17T20:49:10.681Z,50.20
2022-08-17T20:52:00.588Z,50.20
2022-08-17T20:54:42.723Z,50.20
2022-08-17T20:57:32.400Z,50.30
2022-08-17T21:00:05.368Z,50.20
2022-08-17T21:02:38.244Z,50.30
2022-08-17T21:05:27.388Z,50.20
2022-08-17T21:08:14.079Z,50.20
2022-08-17T21:10:48.137Z,50.30
2022-08-17T21:13:17.612Z,50.30
2022-08-17T21:15:49.943Z,50.30
2022-08-17T21:18:22.454Z,50.30
2022-08-17T21:21:14.151Z,50.40
2022-08-17T21:24:22.248Z,50.40
2022-08-17T21:27:09.824Z,50.40
2022-08-17T21:29:52.196Z,50.40
2022-08-17T21:32:29.277Z,50.30
2022-08-17T21:35:17.588Z,50.30
2022-08-17T21:37:47.878Z,50.40
2022-08-17T21:40:20.478Z,50.30
2022-08-17T21:42:54.924Z,50.40
2022-08-17T21:45:28.628Z,50.30
2022-08-17T21:48:17.469Z,50.40
2022-08-17T21:50:51.031Z,50.50
2022-08-17T21:53:32.245Z,50.40
2022-08-17T21:56:02.503Z,50.40
2022-08-17T21:58:33.175Z,50.50
2022-08-17T22:01:22.142Z,50.40
2022-08-17T22:04:06.718Z,50.50
2022-08-17T22:06:37.770Z,50.40
2022-08-17T22:09:15.619Z,50.50
2022-08-17T22:12:05.241Z,50.50
2022-08-17T22:14:53.424Z,50.50
2022-08-17T22:17:37.099Z,50.50
2022-08-17T22:20:11.677Z,50.50
2022-08-17T22:22:59.187Z,50.50
2022-08-17T22:25:28.835Z,50.60
2022-08-17T22:27:59.219Z,50.50
2022-08-17T22:30:38.087Z,50.50
2022-08-17T22:33:26.371Z,50.50
2022-08-17T22:36:12.637Z,50.50
2022-08-17T22:38:43.611Z,50.50
2022-08-17T22:41:33.012Z,50.50
2022-08-17T22:44:24.269Z,50.50
2022-08-17T22:47:11.394Z,50.50
2022-08-17T22:49:58.921Z,50.50
2022-08-17T22:52:34.495Z,50.50
2022-08-17T22:55:24.020Z,50.50
2022-08-17T22:58:11.834Z,50.50
2022-08-17T23:00:42.522Z,50.50
2022-08-17T23:03:21.947Z,50.50
2022-08-17T23:06:04.611Z,50.50
2022-08-17T23:08:36.631Z,50.50
2022-08-17T23:11:06.986Z,50.50
2022-08-17T23:13:38.032Z,50.60
2022-08-17T23:16:07.640Z,50.60
2022-08-17T23:18:37.515Z,50.50
2022-08-17T23:21:08.521Z,50.50
2022-08-17T23:23:42.977Z,50.50
2022-08-17T23:26:12.436Z,50.50
2022-08-17T23:28:42.250Z,50.50
2022-08-17T23:31:12.163Z,50.50
2022-08-17T23:33:41.762Z,50.50
2022-08-17T23:36:16.164Z,50.50
2022-08-17T23:38:45.852Z,50.50
2022-08-17T23:41:16.260Z,50.40
2022-08-17T23:43:46.203Z,50.40
2022-08-17T23:46:15.673Z,50.50
2022-08-17T23:48:45.412Z,50.50
2022-08-17T23:51:20.317Z,50.50
2022-08-17T23:53:51.269Z,50.50
2022-08-17T23:56:27.107Z,50.40
2022-08-17T23:58:56.641Z,50.40
